sensor_id;sensor_type;location;lat;lon;timestamp;P1;durP1;ratioP1;P2;durP2;ratioP2
50853;SDS011;44154;45.506;-122.806;2022-12-26T00:01:37;21.00;;;19.10;;
50853;SDS011;44154;45.506;-122.806;2022-12-26T00:04:06;19.27;;;17.58;;
50853;SDS011;44154;45.506;-122.806;2022-12-26T00:06:32;14.13;;;12.73;;
50853;SDS011;44154;45.506;-122.806;2022-12-26T00:09:00;15.48;;;13.98;;
50853;SDS011;44154;45.506;-122.806;2022-12-26T00:11:28;14.70;;;13.15;;
50853;SDS011;44154;45.506;-122.806;2022-12-26T00:13:55;16.83;;;15.07;;
50853;SDS011;44154;45.506;-122.806;2022-12-26T00:16:23;19.40;;;17.50;;
50853;SDS011;44154;45.506;-122.806;2022-12-26T00:18:50;17.83;;;16.02;;
50853;SDS011;44154;45.506;-122.806;2022-12-26T00:21:18;21.42;;;19.38;;
50853;SDS011;44154;45.506;-122.806;2022-12-26T00:23:45;17.63;;;15.88;;
50853;SDS011;44154;45.506;-122.806;2022-12-26T00:26:13;17.40;;;15.60;;
50853;SDS011;44154;45.506;-122.806;2022-12-26T00:28:40;20.48;;;18.48;;
50853;SDS011;44154;45.506;-122.806;2022-12-26T00:31:11;23.00;;;20.70;;
50853;SDS011;44154;45.506;-122.806;2022-12-26T00:33:39;23.27;;;20.92;;
50853;SDS011;44154;45.506;-122.806;2022-12-26T00:36:09;23.90;;;21.50;;
50853;SDS011;44154;45.506;-122.806;2022-12-26T00:38:40;23.67;;;21.25;;
50853;SDS011;44154;45.506;-122.806;2022-12-26T00:41:08;25.45;;;22.95;;
50853;SDS011;44154;45.506;-122.806;2022-12-26T00:43:35;25.55;;;21.67;;
50853;SDS011;44154;45.506;-122.806;2022-12-26T00:46:02;23.38;;;20.95;;
50853;SDS011;44154;45.506;-122.806;2022-12-26T00:48:28;23.98;;;21.50;;
50853;SDS011;44154;45.506;-122.806;2022-12-26T00:50:55;26.90;;;24.00;;
50853;SDS011;44154;45.506;-122.806;2022-12-26T00:53:21;26.58;;;23.92;;
50853;SDS011;44154;45.506;-122.806;2022-12-26T00:55:48;26.70;;;23.80;;
50853;SDS011;44154;45.506;-122.806;2022-12-26T00:58:15;26.17;;;23.05;;
50853;SDS011;44154;45.506;-122.806;2022-12-26T01:00:42;27.55;;;23.85;;
50853;SDS011;44154;45.506;-122.806;2022-12-26T01:03:09;25.67;;;22.67;;
50853;SDS011;44154;45.506;-122.806;2022-12-26T01:05:43;24.02;;;21.63;;
50853;SDS011;44154;45.506;-122.806;2022-12-26T01:08:11;25.25;;;22.58;;
50853;SDS011;44154;45.506;-122.806;2022-12-26T01:10:40;22.85;;;20.73;;
50853;SDS011;44154;45.506;-122.806;2022-12-26T01:13:11;23.85;;;20.80;;
50853;SDS011;44154;45.506;-122.806;2022-12-26T01:15:37;25.65;;;23.20;;
50853;SDS011;44154;45.506;-122.806;2022-12-26T01:18:04;25.20;;;22.65;;
50853;SDS011;44154;45.506;-122.806;2022-12-26T01:20:30;27.30;;;24.50;;
50853;SDS011;44154;45.506;-122.806;2022-12-26T01:22:57;30.42;;;27.42;;
50853;SDS011;44154;45.506;-122.806;2022-12-26T01:25:23;27.33;;;24.63;;
50853;SDS011;44154;45.506;-122.806;2022-12-26T01:27:50;25.90;;;23.20;;
50853;SDS011;44154;45.506;-122.806;2022-12-26T01:30:16;30.40;;;27.00;;
50853;SDS011;44154;45.506;-122.806;2022-12-26T01:32:43;35.80;;;31.75;;
50853;SDS011;44154;45.506;-122.806;2022-12-26T01:35:09;41.35;;;35.97;;
50853;SDS011;44154;45.506;-122.806;2022-12-26T01:37:35;41.65;;;33.55;;
50853;SDS011;44154;45.506;-122.806;2022-12-26T01:40:02;39.95;;;33.65;;
50853;SDS011;44154;45.506;-122.806;2022-12-26T01:42:33;37.63;;;31.42;;
50853;SDS011;44154;45.506;-122.806;2022-12-26T01:47:34;24.80;;;21.27;;
50853;SDS011;44154;45.506;-122.806;2022-12-26T01:50:05;25.92;;;20.30;;
50853;SDS011;44154;45.506;-122.806;2022-12-26T01:52:43;20.95;;;18.73;;
50853;SDS011;44154;45.506;-122.806;2022-12-26T01:55:12;26.17;;;23.38;;
50853;SDS011;44154;45.506;-122.806;2022-12-26T01:57:41;26.63;;;21.67;;
50853;SDS011;44154;45.506;-122.806;2022-12-26T02:00:10;34.33;;;28.95;;
50853;SDS011;44154;45.506;-122.806;2022-12-26T02:02:37;34.88;;;28.70;;
50853;SDS011;44154;45.506;-122.806;2022-12-26T02:05:23;38.97;;;31.83;;
50853;SDS011;44154;45.506;-122.806;2022-12-26T02:07:59;34.60;;;30.30;;
50853;SDS011;44154;45.506;-122.806;2022-12-26T02:10:28;38.65;;;33.05;;
50853;SDS011;44154;45.506;-122.806;2022-12-26T02:12:59;39.47;;;34.28;;
50853;SDS011;44154;45.506;-122.806;2022-12-26T02:15:26;46.83;;;36.88;;
50853;SDS011;44154;45.506;-122.806;2022-12-26T02:17:53;42.67;;;38.00;;
50853;SDS011;44154;45.506;-122.806;2022-12-26T02:20:21;50.08;;;39.50;;
50853;SDS011;44154;45.506;-122.806;2022-12-26T02:25:38;57.13;;;41.58;;
50853;SDS011;44154;45.506;-122.806;2022-12-26T02:31:44;50.70;;;41.58;;
50853;SDS011;44154;45.506;-122.806;2022-12-26T02:40:16;48.85;;;40.30;;
50853;SDS011;44154;45.506;-122.806;2022-12-26T02:42:50;49.92;;;40.53;;
50853;SDS011;44154;45.506;-122.806;2022-12-26T02:48:29;43.95;;;38.20;;
50853;SDS011;44154;45.506;-122.806;2022-12-26T02:57:02;42.22;;;37.65;;
50853;SDS011;44154;45.506;-122.806;2022-12-26T02:59:51;46.13;;;37.67;;
50853;SDS011;44154;45.506;-122.806;2022-12-26T03:03:03;40.38;;;36.00;;
50853;SDS011;44154;45.506;-122.806;2022-12-26T03:05:51;40.35;;;35.95;;
50853;SDS011;44154;45.506;-122.806;2022-12-26T03:08:38;38.85;;;34.25;;
50853;SDS011;44154;45.506;-122.806;2022-12-26T03:11:31;41.50;;;36.92;;
50853;SDS011;44154;45.506;-122.806;2022-12-26T03:14:25;39.75;;;35.47;;
50853;SDS011;44154;45.506;-122.806;2022-12-26T03:17:07;39.55;;;33.30;;
50853;SDS011;44154;45.506;-122.806;2022-12-26T03:19:46;42.72;;;37.63;;
50853;SDS011;44154;45.506;-122.806;2022-12-26T03:22:26;37.92;;;33.88;;
50853;SDS011;44154;45.506;-122.806;2022-12-26T03:25:04;38.50;;;34.40;;
50853;SDS011;44154;45.506;-122.806;2022-12-26T03:27:54;39.15;;;34.83;;
50853;SDS011;44154;45.506;-122.806;2022-12-26T03:30:21;38.25;;;34.08;;
50853;SDS011;44154;45.506;-122.806;2022-12-26T03:33:06;37.40;;;33.22;;
50853;SDS011;44154;45.506;-122.806;2022-12-26T03:35:55;28.77;;;25.48;;
50853;SDS011;44154;45.506;-122.806;2022-12-26T03:38:32;33.63;;;28.85;;
50853;SDS011;44154;45.506;-122.806;2022-12-26T03:41:18;33.13;;;29.50;;
50853;SDS011;44154;45.506;-122.806;2022-12-26T03:44:22;31.10;;;27.63;;
50853;SDS011;44154;45.506;-122.806;2022-12-26T03:49:59;32.53;;;29.10;;
50853;SDS011;44154;45.506;-122.806;2022-12-26T03:53:04;36.80;;;30.67;;
50853;SDS011;44154;45.506;-122.806;2022-12-26T03:56:17;32.03;;;28.83;;
50853;SDS011;44154;45.506;-122.806;2022-12-26T03:59:18;32.75;;;28.45;;
50853;SDS011;44154;45.506;-122.806;2022-12-26T04:02:09;31.95;;;26.58;;
50853;SDS011;44154;45.506;-122.806;2022-12-26T04:04:56;33.75;;;26.98;;
50853;SDS011;44154;45.506;-122.806;2022-12-26T04:08:06;34.42;;;26.50;;
50853;SDS011;44154;45.506;-122.806;2022-12-26T04:10:58;28.40;;;22.60;;
50853;SDS011;44154;45.506;-122.806;2022-12-26T04:22:43;28.80;;;23.60;;
50853;SDS011;44154;45.506;-122.806;2022-12-26T04:25:38;27.33;;;22.67;;
50853;SDS011;44154;45.506;-122.806;2022-12-26T04:28:34;25.98;;;22.67;;
50853;SDS011;44154;45.506;-122.806;2022-12-26T04:32:02;22.02;;;19.73;;
50853;SDS011;44154;45.506;-122.806;2022-12-26T04:34:44;25.02;;;20.27;;
50853;SDS011;44154;45.506;-122.806;2022-12-26T04:37:35;24.73;;;20.13;;
50853;SDS011;44154;45.506;-122.806;2022-12-26T04:40:25;21.48;;;19.27;;
50853;SDS011;44154;45.506;-122.806;2022-12-26T04:43:13;22.58;;;20.17;;
50853;SDS011;44154;45.506;-122.806;2022-12-26T04:45:59;20.77;;;18.13;;
50853;SDS011;44154;45.506;-122.806;2022-12-26T04:48:26;22.40;;;19.83;;
50853;SDS011;44154;45.506;-122.806;2022-12-26T04:51:11;21.75;;;19.08;;
50853;SDS011;44154;45.506;-122.806;2022-12-26T04:53:37;21.67;;;19.55;;
50853;SDS011;44154;45.506;-122.806;2022-12-26T04:56:03;22.20;;;19.10;;
50853;SDS011;44154;45.506;-122.806;2022-12-26T04:58:30;21.88;;;18.13;;
50853;SDS011;44154;45.506;-122.806;2022-12-26T05:00:56;19.95;;;17.85;;
50853;SDS011;44154;45.506;-122.806;2022-12-26T05:03:42;20.15;;;18.05;;
50853;SDS011;44154;45.506;-122.806;2022-12-26T05:06:26;20.38;;;17.27;;
50853;SDS011;44154;45.506;-122.806;2022-12-26T05:09:11;19.27;;;17.38;;
50853;SDS011;44154;45.506;-122.806;2022-12-26T05:12:02;19.60;;;17.52;;
50853;SDS011;44154;45.506;-122.806;2022-12-26T05:14:30;22.00;;;17.23;;
50853;SDS011;44154;45.506;-122.806;2022-12-26T05:17:03;19.30;;;17.48;;
50853;SDS011;44154;45.506;-122.806;2022-12-26T05:19:48;20.63;;;18.42;;
50853;SDS011;44154;45.506;-122.806;2022-12-26T05:22:33;19.40;;;17.45;;
50853;SDS011;44154;45.506;-122.806;2022-12-26T05:25:23;20.35;;;18.25;;
50853;SDS011;44154;45.506;-122.806;2022-12-26T05:28:10;19.23;;;17.23;;
50853;SDS011;44154;45.506;-122.806;2022-12-26T05:30:56;19.30;;;17.38;;
50853;SDS011;44154;45.506;-122.806;2022-12-26T05:33:23;20.20;;;18.10;;
50853;SDS011;44154;45.506;-122.806;2022-12-26T05:36:08;18.65;;;16.45;;
50853;SDS011;44154;45.506;-122.806;2022-12-26T05:38:35;19.35;;;17.35;;
50853;SDS011;44154;45.506;-122.806;2022-12-26T05:41:01;19.02;;;17.13;;
50853;SDS011;44154;45.506;-122.806;2022-12-26T05:43:28;19.17;;;17.27;;
50853;SDS011;44154;45.506;-122.806;2022-12-26T05:45:54;18.58;;;16.83;;
50853;SDS011;44154;45.506;-122.806;2022-12-26T05:48:20;20.35;;;17.95;;
50853;SDS011;44154;45.506;-122.806;2022-12-26T05:50:46;18.52;;;16.38;;
50853;SDS011;44154;45.506;-122.806;2022-12-26T05:53:12;45.35;;;40.92;;
50853;SDS011;44154;45.506;-122.806;2022-12-26T05:55:38;24.25;;;22.02;;
50853;SDS011;44154;45.506;-122.806;2022-12-26T05:58:04;25.63;;;21.98;;
50853;SDS011;44154;45.506;-122.806;2022-12-26T06:00:31;25.67;;;23.00;;
50853;SDS011;44154;45.506;-122.806;2022-12-26T06:02:57;24.73;;;22.20;;
50853;SDS011;44154;45.506;-122.806;2022-12-26T06:05:25;23.85;;;21.45;;
50853;SDS011;44154;45.506;-122.806;2022-12-26T06:07:51;24.98;;;22.25;;
50853;SDS011;44154;45.506;-122.806;2022-12-26T06:10:17;23.83;;;21.38;;
50853;SDS011;44154;45.506;-122.806;2022-12-26T06:12:43;23.80;;;21.25;;
50853;SDS011;44154;45.506;-122.806;2022-12-26T06:15:10;25.02;;;22.52;;
50853;SDS011;44154;45.506;-122.806;2022-12-26T06:17:37;24.65;;;22.25;;
50853;SDS011;44154;45.506;-122.806;2022-12-26T06:20:04;25.63;;;21.85;;
50853;SDS011;44154;45.506;-122.806;2022-12-26T06:22:30;24.58;;;22.23;;
50853;SDS011;44154;45.506;-122.806;2022-12-26T06:24:57;24.05;;;21.55;;
50853;SDS011;44154;45.506;-122.806;2022-12-26T06:27:25;23.38;;;20.98;;
50853;SDS011;44154;45.506;-122.806;2022-12-26T06:29:51;22.27;;;20.15;;
50853;SDS011;44154;45.506;-122.806;2022-12-26T06:32:17;22.88;;;20.63;;
50853;SDS011;44154;45.506;-122.806;2022-12-26T06:34:43;22.85;;;20.50;;
50853;SDS011;44154;45.506;-122.806;2022-12-26T06:37:10;22.75;;;20.45;;
50853;SDS011;44154;45.506;-122.806;2022-12-26T06:39:36;25.20;;;22.60;;
50853;SDS011;44154;45.506;-122.806;2022-12-26T06:42:02;23.92;;;21.38;;
50853;SDS011;44154;45.506;-122.806;2022-12-26T06:44:29;24.27;;;21.88;;
50853;SDS011;44154;45.506;-122.806;2022-12-26T06:46:55;24.75;;;22.20;;
50853;SDS011;44154;45.506;-122.806;2022-12-26T06:49:21;25.98;;;22.98;;
50853;SDS011;44154;45.506;-122.806;2022-12-26T06:51:50;26.13;;;23.42;;
50853;SDS011;44154;45.506;-122.806;2022-12-26T06:54:16;24.38;;;21.75;;
50853;SDS011;44154;45.506;-122.806;2022-12-26T06:56:43;26.17;;;21.42;;
50853;SDS011;44154;45.506;-122.806;2022-12-26T06:59:09;29.48;;;22.75;;
50853;SDS011;44154;45.506;-122.806;2022-12-26T07:01:36;25.17;;;22.48;;
50853;SDS011;44154;45.506;-122.806;2022-12-26T07:04:02;26.52;;;21.73;;
50853;SDS011;44154;45.506;-122.806;2022-12-26T07:06:30;24.27;;;20.80;;
50853;SDS011;44154;45.506;-122.806;2022-12-26T07:09:05;24.00;;;21.20;;
50853;SDS011;44154;45.506;-122.806;2022-12-26T07:11:34;27.92;;;21.70;;
50853;SDS011;44154;45.506;-122.806;2022-12-26T07:14:02;22.45;;;20.00;;
50853;SDS011;44154;45.506;-122.806;2022-12-26T07:16:28;27.05;;;22.50;;
50853;SDS011;44154;45.506;-122.806;2022-12-26T07:18:56;30.80;;;20.35;;
50853;SDS011;44154;45.506;-122.806;2022-12-26T07:21:23;23.92;;;21.08;;
50853;SDS011;44154;45.506;-122.806;2022-12-26T07:23:50;41.50;;;37.17;;
50853;SDS011;44154;45.506;-122.806;2022-12-26T07:26:16;34.10;;;30.35;;
50853;SDS011;44154;45.506;-122.806;2022-12-26T07:28:43;34.75;;;31.27;;
50853;SDS011;44154;45.506;-122.806;2022-12-26T07:31:14;76.03;;;68.20;;
50853;SDS011;44154;45.506;-122.806;2022-12-26T07:33:42;49.80;;;44.50;;
50853;SDS011;44154;45.506;-122.806;2022-12-26T07:36:08;56.42;;;50.83;;
50853;SDS011;44154;45.506;-122.806;2022-12-26T07:38:34;74.63;;;67.28;;
50853;SDS011;44154;45.506;-122.806;2022-12-26T07:41:00;51.00;;;45.78;;
50853;SDS011;44154;45.506;-122.806;2022-12-26T07:43:46;40.13;;;35.90;;
50853;SDS011;44154;45.506;-122.806;2022-12-26T07:46:12;53.47;;;48.17;;
50853;SDS011;44154;45.506;-122.806;2022-12-26T07:48:38;26.52;;;23.90;;
50853;SDS011;44154;45.506;-122.806;2022-12-26T07:51:04;27.80;;;25.10;;
50853;SDS011;44154;45.506;-122.806;2022-12-26T07:53:31;43.53;;;39.40;;
50853;SDS011;44154;45.506;-122.806;2022-12-26T07:56:00;45.75;;;41.45;;
50853;SDS011;44154;45.506;-122.806;2022-12-26T07:58:26;48.53;;;44.03;;
50853;SDS011;44154;45.506;-122.806;2022-12-26T08:00:52;50.10;;;45.17;;
50853;SDS011;44154;45.506;-122.806;2022-12-26T08:03:19;40.53;;;36.38;;
50853;SDS011;44154;45.506;-122.806;2022-12-26T08:05:47;32.42;;;29.33;;
50853;SDS011;44154;45.506;-122.806;2022-12-26T08:08:14;33.53;;;29.98;;
50853;SDS011;44154;45.506;-122.806;2022-12-26T08:10:41;34.53;;;31.02;;
50853;SDS011;44154;45.506;-122.806;2022-12-26T08:13:07;34.33;;;31.17;;
50853;SDS011;44154;45.506;-122.806;2022-12-26T08:15:33;34.10;;;30.83;;
50853;SDS011;44154;45.506;-122.806;2022-12-26T08:18:03;35.42;;;31.95;;
50853;SDS011;44154;45.506;-122.806;2022-12-26T08:20:30;35.42;;;31.70;;
50853;SDS011;44154;45.506;-122.806;2022-12-26T08:22:57;34.03;;;30.73;;
50853;SDS011;44154;45.506;-122.806;2022-12-26T08:25:23;31.27;;;28.05;;
50853;SDS011;44154;45.506;-122.806;2022-12-26T08:27:49;32.30;;;29.15;;
50853;SDS011;44154;45.506;-122.806;2022-12-26T08:30:16;31.30;;;28.15;;
50853;SDS011;44154;45.506;-122.806;2022-12-26T08:32:42;32.92;;;29.63;;
50853;SDS011;44154;45.506;-122.806;2022-12-26T08:35:08;35.22;;;31.73;;
50853;SDS011;44154;45.506;-122.806;2022-12-26T08:37:34;31.67;;;28.45;;
50853;SDS011;44154;45.506;-122.806;2022-12-26T08:40:00;33.42;;;30.17;;
50853;SDS011;44154;45.506;-122.806;2022-12-26T08:42:27;34.63;;;31.33;;
50853;SDS011;44154;45.506;-122.806;2022-12-26T08:44:53;36.35;;;32.70;;
50853;SDS011;44154;45.506;-122.806;2022-12-26T08:47:19;33.72;;;30.40;;
50853;SDS011;44154;45.506;-122.806;2022-12-26T08:49:46;34.17;;;30.80;;
50853;SDS011;44154;45.506;-122.806;2022-12-26T08:52:12;33.15;;;29.75;;
50853;SDS011;44154;45.506;-122.806;2022-12-26T08:54:38;34.80;;;31.23;;
50853;SDS011;44154;45.506;-122.806;2022-12-26T08:57:04;34.55;;;31.13;;
50853;SDS011;44154;45.506;-122.806;2022-12-26T08:59:30;32.22;;;29.10;;
50853;SDS011;44154;45.506;-122.806;2022-12-26T09:01:56;33.92;;;30.38;;
50853;SDS011;44154;45.506;-122.806;2022-12-26T09:04:22;29.70;;;26.70;;
50853;SDS011;44154;45.506;-122.806;2022-12-26T09:06:49;34.15;;;30.80;;
50853;SDS011;44154;45.506;-122.806;2022-12-26T09:09:15;34.38;;;30.95;;
50853;SDS011;44154;45.506;-122.806;2022-12-26T09:11:41;31.88;;;28.67;;
50853;SDS011;44154;45.506;-122.806;2022-12-26T09:14:08;36.50;;;32.72;;
50853;SDS011;44154;45.506;-122.806;2022-12-26T09:16:37;127.15;;;114.57;;
50853;SDS011;44154;45.506;-122.806;2022-12-26T09:19:11;97.45;;;87.97;;
50853;SDS011;44154;45.506;-122.806;2022-12-26T09:21:41;76.43;;;69.43;;
50853;SDS011;44154;45.506;-122.806;2022-12-26T09:24:12;64.20;;;58.15;;
50853;SDS011;44154;45.506;-122.806;2022-12-26T09:29:08;52.65;;;47.63;;
50853;SDS011;44154;45.506;-122.806;2022-12-26T09:31:35;47.92;;;43.42;;
50853;SDS011;44154;45.506;-122.806;2022-12-26T09:34:05;53.25;;;48.28;;
50853;SDS011;44154;45.506;-122.806;2022-12-26T09:36:33;40.78;;;36.83;;
50853;SDS011;44154;45.506;-122.806;2022-12-26T09:39:04;36.78;;;33.53;;
50853;SDS011;44154;45.506;-122.806;2022-12-26T09:47:33;39.55;;;35.78;;
50853;SDS011;44154;45.506;-122.806;2022-12-26T09:50:19;35.08;;;31.67;;
50853;SDS011;44154;45.506;-122.806;2022-12-26T09:58:27;32.00;;;28.90;;
50853;SDS011;44154;45.506;-122.806;2022-12-26T10:01:15;33.38;;;30.15;;
50853;SDS011;44154;45.506;-122.806;2022-12-26T10:25:51;35.53;;;32.33;;
50853;SDS011;44154;45.506;-122.806;2022-12-26T10:28:41;34.03;;;30.80;;
50853;SDS011;44154;45.506;-122.806;2022-12-26T10:31:16;32.47;;;29.38;;
50853;SDS011;44154;45.506;-122.806;2022-12-26T10:33:55;32.05;;;29.05;;
50853;SDS011;44154;45.506;-122.806;2022-12-26T10:36:34;36.25;;;32.83;;
50853;SDS011;44154;45.506;-122.806;2022-12-26T10:39:05;66.35;;;60.05;;
50853;SDS011;44154;45.506;-122.806;2022-12-26T10:44:18;40.85;;;37.05;;
50853;SDS011;44154;45.506;-122.806;2022-12-26T10:47:01;33.95;;;30.85;;
50853;SDS011;44154;45.506;-122.806;2022-12-26T10:49:39;30.95;;;28.08;;
50853;SDS011;44154;45.506;-122.806;2022-12-26T10:52:08;26.98;;;24.48;;
50853;SDS011;44154;45.506;-122.806;2022-12-26T10:54:36;24.50;;;22.30;;
50853;SDS011;44154;45.506;-122.806;2022-12-26T10:57:03;23.83;;;21.70;;
50853;SDS011;44154;45.506;-122.806;2022-12-26T10:59:45;20.67;;;18.85;;
50853;SDS011;44154;45.506;-122.806;2022-12-26T11:02:30;21.38;;;19.48;;
50853;SDS011;44154;45.506;-122.806;2022-12-26T11:04:58;20.92;;;19.08;;
50853;SDS011;44154;45.506;-122.806;2022-12-26T11:07:41;19.80;;;17.85;;
50853;SDS011;44154;45.506;-122.806;2022-12-26T11:10:26;16.63;;;15.13;;
50853;SDS011;44154;45.506;-122.806;2022-12-26T11:12:54;16.52;;;15.02;;
50853;SDS011;44154;45.506;-122.806;2022-12-26T11:15:40;15.43;;;13.95;;
50853;SDS011;44154;45.506;-122.806;2022-12-26T11:20:42;13.93;;;12.70;;
50853;SDS011;44154;45.506;-122.806;2022-12-26T11:23:17;14.20;;;12.80;;
50853;SDS011;44154;45.506;-122.806;2022-12-26T11:25:51;13.25;;;12.00;;
50853;SDS011;44154;45.506;-122.806;2022-12-26T11:28:24;13.07;;;11.88;;
50853;SDS011;44154;45.506;-122.806;2022-12-26T11:30:52;12.18;;;11.00;;
50853;SDS011;44154;45.506;-122.806;2022-12-26T11:36:08;12.93;;;11.73;;
50853;SDS011;44154;45.506;-122.806;2022-12-26T11:38:46;11.65;;;10.55;;
50853;SDS011;44154;45.506;-122.806;2022-12-26T11:41:31;11.45;;;10.35;;
50853;SDS011;44154;45.506;-122.806;2022-12-26T11:44:10;10.75;;;9.65;;
50853;SDS011;44154;45.506;-122.806;2022-12-26T11:51:51;9.48;;;8.57;;
50853;SDS011;44154;45.506;-122.806;2022-12-26T11:54:20;9.27;;;8.38;;
50853;SDS011;44154;45.506;-122.806;2022-12-26T11:56:46;9.32;;;8.43;;
50853;SDS011;44154;45.506;-122.806;2022-12-26T11:59:20;9.23;;;8.23;;
50853;SDS011;44154;45.506;-122.806;2022-12-26T12:01:49;8.90;;;8.00;;
50853;SDS011;44154;45.506;-122.806;2022-12-26T12:04:36;9.07;;;8.18;;
50853;SDS011;44154;45.506;-122.806;2022-12-26T12:09:56;10.02;;;9.10;;
50853;SDS011;44154;45.506;-122.806;2022-12-26T12:12:46;8.00;;;7.20;;
50853;SDS011;44154;45.506;-122.806;2022-12-26T12:21:42;8.77;;;7.85;;
50853;SDS011;44154;45.506;-122.806;2022-12-26T12:29:34;8.38;;;7.57;;
50853;SDS011;44154;45.506;-122.806;2022-12-26T12:34:46;8.20;;;7.40;;
50853;SDS011;44154;45.506;-122.806;2022-12-26T12:43:39;9.15;;;8.20;;
50853;SDS011;44154;45.506;-122.806;2022-12-26T12:49:33;8.35;;;7.55;;
50853;SDS011;44154;45.506;-122.806;2022-12-26T12:52:18;7.60;;;6.80;;
50853;SDS011;44154;45.506;-122.806;2022-12-26T12:57:57;7.97;;;7.07;;
50853;SDS011;44154;45.506;-122.806;2022-12-26T13:00:31;7.93;;;7.13;;
50853;SDS011;44154;45.506;-122.806;2022-12-26T13:03:10;7.95;;;7.15;;
50853;SDS011;44154;45.506;-122.806;2022-12-26T13:08:16;8.50;;;7.65;;
50853;SDS011;44154;45.506;-122.806;2022-12-26T13:11:04;8.40;;;7.50;;
50853;SDS011;44154;45.506;-122.806;2022-12-26T13:16:19;6.18;;;5.57;;
50853;SDS011;44154;45.506;-122.806;2022-12-26T13:19:00;4.90;;;4.40;;
50853;SDS011;44154;45.506;-122.806;2022-12-26T13:21:31;4.63;;;3.78;;
50853;SDS011;44154;45.506;-122.806;2022-12-26T13:24:44;4.20;;;3.80;;
50853;SDS011;44154;45.506;-122.806;2022-12-26T13:29:43;3.10;;;2.78;;
50853;SDS011;44154;45.506;-122.806;2022-12-26T13:34:55;2.83;;;2.30;;
50853;SDS011;44154;45.506;-122.806;2022-12-26T13:42:39;2.42;;;1.80;;
50853;SDS011;44154;45.506;-122.806;2022-12-26T13:48:53;2.22;;;1.55;;
50853;SDS011;44154;45.506;-122.806;2022-12-26T13:51:01;1.92;;;1.70;;
50853;SDS011;44154;45.506;-122.806;2022-12-26T13:53:38;1.57;;;1.37;;
50853;SDS011;44154;45.506;-122.806;2022-12-26T14:09:39;1.13;;;0.80;;
50853;SDS011;44154;45.506;-122.806;2022-12-26T14:12:19;1.08;;;0.90;;
50853;SDS011;44154;45.506;-122.806;2022-12-26T14:17:32;0.80;;;0.70;;
50853;SDS011;44154;45.506;-122.806;2022-12-26T14:25:39;0.80;;;0.60;;
50853;SDS011;44154;45.506;-122.806;2022-12-26T14:33:33;0.80;;;0.52;;
50853;SDS011;44154;45.506;-122.806;2022-12-26T14:44:53;0.60;;;0.43;;
50853;SDS011;44154;45.506;-122.806;2022-12-26T14:55:55;0.50;;;0.40;;
50853;SDS011;44154;45.506;-122.806;2022-12-26T15:11:37;0.28;;;0.22;;
50853;SDS011;44154;45.506;-122.806;2022-12-26T15:25:45;0.40;;;0.30;;
50853;SDS011;44154;45.506;-122.806;2022-12-26T15:31:28;0.60;;;0.20;;
50853;SDS011;44154;45.506;-122.806;2022-12-26T15:45:23;0.20;;;0.20;;
50853;SDS011;44154;45.506;-122.806;2022-12-26T15:50:45;0.15;;;0.15;;
50853;SDS011;44154;45.506;-122.806;2022-12-26T15:59:27;0.20;;;0.20;;
50853;SDS011;44154;45.506;-122.806;2022-12-26T16:02:09;0.20;;;0.20;;
50853;SDS011;44154;45.506;-122.806;2022-12-26T16:04:43;0.20;;;0.20;;
50853;SDS011;44154;45.506;-122.806;2022-12-26T16:10:00;0.10;;;0.10;;
50853;SDS011;44154;45.506;-122.806;2022-12-26T16:12:28;0.17;;;0.10;;
50853;SDS011;44154;45.506;-122.806;2022-12-26T16:14:59;0.50;;;0.30;;
50853;SDS011;44154;45.506;-122.806;2022-12-26T16:17:38;0.77;;;0.20;;
50853;SDS011;44154;45.506;-122.806;2022-12-26T16:20:38;0.43;;;0.30;;
50853;SDS011;44154;45.506;-122.806;2022-12-26T16:23:17;1.02;;;0.10;;
50853;SDS011;44154;45.506;-122.806;2022-12-26T16:25:46;3.03;;;0.30;;
50853;SDS011;44154;45.506;-122.806;2022-12-26T16:28:22;0.52;;;0.10;;
50853;SDS011;44154;45.506;-122.806;2022-12-26T16:30:52;0.10;;;0.10;;
50853;SDS011;44154;45.506;-122.806;2022-12-26T16:33:20;2.35;;;0.10;;
50853;SDS011;44154;45.506;-122.806;2022-12-26T16:35:46;0.55;;;0.10;;
50853;SDS011;44154;45.506;-122.806;2022-12-26T16:38:15;1.27;;;0.10;;
50853;SDS011;44154;45.506;-122.806;2022-12-26T16:40:46;1.65;;;0.15;;
50853;SDS011;44154;45.506;-122.806;2022-12-26T16:45:44;2.58;;;0.10;;
50853;SDS011;44154;45.506;-122.806;2022-12-26T16:48:13;3.53;;;0.20;;
50853;SDS011;44154;45.506;-122.806;2022-12-26T16:50:46;1.52;;;0.20;;
50853;SDS011;44154;45.506;-122.806;2022-12-26T16:53:15;0.63;;;0.10;;
50853;SDS011;44154;45.506;-122.806;2022-12-26T16:55:44;0.15;;;0.15;;
50853;SDS011;44154;45.506;-122.806;2022-12-26T16:58:25;0.75;;;0.20;;
50853;SDS011;44154;45.506;-122.806;2022-12-26T17:03:34;0.38;;;0.20;;
50853;SDS011;44154;45.506;-122.806;2022-12-26T17:06:17;1.67;;;0.40;;
50853;SDS011;44154;45.506;-122.806;2022-12-26T17:08:52;1.25;;;0.47;;
50853;SDS011;44154;45.506;-122.806;2022-12-26T17:11:33;4.57;;;0.50;;
50853;SDS011;44154;45.506;-122.806;2022-12-26T17:14:02;8.15;;;1.60;;
50853;SDS011;44154;45.506;-122.806;2022-12-26T17:16:30;8.57;;;0.75;;
50853;SDS011;44154;45.506;-122.806;2022-12-26T17:19:19;4.15;;;0.70;;
50853;SDS011;44154;45.506;-122.806;2022-12-26T17:24:45;4.10;;;0.60;;
50853;SDS011;44154;45.506;-122.806;2022-12-26T17:27:17;4.25;;;0.75;;
50853;SDS011;44154;45.506;-122.806;2022-12-26T17:29:57;3.92;;;0.73;;
50853;SDS011;44154;45.506;-122.806;2022-12-26T17:32:43;4.82;;;0.70;;
50853;SDS011;44154;45.506;-122.806;2022-12-26T17:35:15;6.43;;;0.70;;
50853;SDS011;44154;45.506;-122.806;2022-12-26T17:38:01;4.00;;;0.60;;
50853;SDS011;44154;45.506;-122.806;2022-12-26T17:40:34;3.55;;;0.55;;
50853;SDS011;44154;45.506;-122.806;2022-12-26T17:43:05;2.70;;;0.80;;
50853;SDS011;44154;45.506;-122.806;2022-12-26T17:45:38;1.90;;;0.70;;
50853;SDS011;44154;45.506;-122.806;2022-12-26T17:48:06;4.88;;;0.70;;
50853;SDS011;44154;45.506;-122.806;2022-12-26T17:50:35;3.35;;;0.57;;
50853;SDS011;44154;45.506;-122.806;2022-12-26T17:53:07;5.75;;;0.77;;
50853;SDS011;44154;45.506;-122.806;2022-12-26T17:55:47;5.63;;;0.70;;
50853;SDS011;44154;45.506;-122.806;2022-12-26T17:58:14;8.88;;;0.82;;
50853;SDS011;44154;45.506;-122.806;2022-12-26T18:00:41;2.90;;;0.60;;
50853;SDS011;44154;45.506;-122.806;2022-12-26T18:03:08;6.00;;;0.77;;
50853;SDS011;44154;45.506;-122.806;2022-12-26T18:05:34;5.05;;;0.57;;
50853;SDS011;44154;45.506;-122.806;2022-12-26T18:08:01;3.40;;;0.52;;
50853;SDS011;44154;45.506;-122.806;2022-12-26T18:10:29;4.00;;;0.60;;
50853;SDS011;44154;45.506;-122.806;2022-12-26T18:12:57;2.28;;;0.50;;
50853;SDS011;44154;45.506;-122.806;2022-12-26T18:15:24;5.05;;;0.85;;
50853;SDS011;44154;45.506;-122.806;2022-12-26T18:17:52;4.15;;;0.50;;
50853;SDS011;44154;45.506;-122.806;2022-12-26T18:20:28;5.00;;;0.82;;
50853;SDS011;44154;45.506;-122.806;2022-12-26T18:22:55;5.00;;;0.95;;